Aviation Digital Data Service (ADDS)

Output produced by TAFs form (1923 UTC 27 August 2015)
found at http://aviationweather.gov/adds/tafs/
 
KTUS 271739Z 2718/2818 VRB03KT P6SM FEW100 SCT250 
     FM272200 33006KT P6SM VCTS SCT080CB SCT120 BKN200 
     FM280200 25007KT P6SM SCT080 BKN120 
     FM280600 14006KT P6SM SCT140 BKN250